SWA3259 KCOS-KLAS
Flight info
| Callsign | SWA3259 |
|---|---|
| Flight time | N/A |
| Altitude | 32000 |
| Route | DRAKE V83 PUB/N0458F380 TYEGR CHOWW4 |
| Aircraft | B737/M-SDE2E3FGHIRWXY/LB1 |
Departure
| Time | 2026-04-28 01:49 |
|---|---|
| Airport | City of Colorado Springs Municipal Airport (KCOS) |
Arrival
| Time | N/A |
|---|---|
| Airport | Harry Reid International Airport (KLAS) |
| Time | Latitude | Longitude | Altitude | Speed | Heading |
|---|---|---|---|---|---|
| 2026-04-28 01:21 | 38.79941 | -104.70161 | 6246 ft | 0 kts | 127° |
| 2026-04-28 01:33 | 38.79951 | -104.70176 | 6107 ft | 4 kts | 127° |
| 2026-04-28 01:34 | 38.79966 | -104.70204 | 6106 ft | 4 kts | 117° |
| 2026-04-28 01:34 | 38.79973 | -104.70233 | 6223 ft | 4 kts | 68° |
| 2026-04-28 01:34 | 38.79964 | -104.70244 | 6192 ft | 2 kts | 0° |
| 2026-04-28 01:34 | 38.79939 | -104.70244 | 6192 ft | 3 kts | 0° |
| 2026-04-28 01:35 | 38.79936 | -104.70244 | 6192 ft | 0 kts | 0° |
| 2026-04-28 01:38 | 38.79937 | -104.70244 | 6192 ft | 1 kts | 0° |
| 2026-04-28 01:38 | 38.79959 | -104.70244 | 6190 ft | 4 kts | 0° |
| 2026-04-28 01:39 | 38.79989 | -104.70244 | 6193 ft | 5 kts | 0° |
| 2026-04-28 01:39 | 38.80029 | -104.70244 | 6193 ft | 7 kts | 0° |
| 2026-04-28 01:39 | 38.80070 | -104.70213 | 6193 ft | 8 kts | 64° |
| 2026-04-28 01:39 | 38.80078 | -104.70132 | 6193 ft | 11 kts | 75° |
| 2026-04-28 01:40 | 38.80144 | -104.70086 | 6193 ft | 13 kts | 0° |
| 2026-04-28 01:40 | 38.80245 | -104.70083 | 6193 ft | 16 kts | 13° |
| 2026-04-28 01:40 | 38.80280 | -104.69964 | 6193 ft | 15 kts | 90° |
| 2026-04-28 01:40 | 38.80280 | -104.69830 | 6193 ft | 15 kts | 90° |
| 2026-04-28 01:41 | 38.80279 | -104.69701 | 6193 ft | 14 kts | 90° |
| 2026-04-28 01:41 | 38.80279 | -104.69578 | 6193 ft | 14 kts | 90° |
| 2026-04-28 01:41 | 38.80279 | -104.69456 | 6193 ft | 14 kts | 90° |
| 2026-04-28 01:41 | 38.80279 | -104.69331 | 6193 ft | 14 kts | 90° |
| 2026-04-28 01:42 | 38.80279 | -104.69213 | 6193 ft | 13 kts | 90° |
| 2026-04-28 01:42 | 38.80279 | -104.69096 | 6193 ft | 13 kts | 90° |
| 2026-04-28 01:42 | 38.80279 | -104.68985 | 6193 ft | 12 kts | 90° |
| 2026-04-28 01:42 | 38.80279 | -104.68875 | 6193 ft | 12 kts | 90° |
| 2026-04-28 01:43 | 38.80244 | -104.68790 | 6193 ft | 12 kts | 165° |
| 2026-04-28 01:43 | 38.80159 | -104.68788 | 6193 ft | 13 kts | 180° |
| 2026-04-28 01:43 | 38.80065 | -104.68788 | 6193 ft | 15 kts | 180° |
| 2026-04-28 01:43 | 38.79955 | -104.68788 | 6193 ft | 17 kts | 180° |
| 2026-04-28 01:44 | 38.79832 | -104.68788 | 6193 ft | 19 kts | 180° |
| 2026-04-28 01:44 | 38.79694 | -104.68789 | 6192 ft | 21 kts | 181° |
| 2026-04-28 01:44 | 38.79552 | -104.68789 | 6192 ft | 20 kts | 180° |
| 2026-04-28 01:44 | 38.79415 | -104.68788 | 6192 ft | 19 kts | 180° |
| 2026-04-28 01:45 | 38.79282 | -104.68789 | 6192 ft | 19 kts | 180° |
| 2026-04-28 01:45 | 38.79153 | -104.68788 | 6193 ft | 18 kts | 180° |
| 2026-04-28 01:45 | 38.79029 | -104.68789 | 6193 ft | 18 kts | 180° |
| 2026-04-28 01:45 | 38.78909 | -104.68790 | 6193 ft | 17 kts | 180° |
| 2026-04-28 01:46 | 38.78794 | -104.68789 | 6193 ft | 16 kts | 180° |
| 2026-04-28 01:46 | 38.78682 | -104.68791 | 6194 ft | 16 kts | 180° |
| 2026-04-28 01:46 | 38.78575 | -104.68791 | 6193 ft | 15 kts | 180° |
| 2026-04-28 01:46 | 38.78473 | -104.68791 | 6193 ft | 14 kts | 180° |
| 2026-04-28 01:47 | 38.78376 | -104.68791 | 6193 ft | 14 kts | 180° |
| 2026-04-28 01:47 | 38.78282 | -104.68791 | 6193 ft | 13 kts | 180° |
| 2026-04-28 01:47 | 38.78192 | -104.68791 | 6192 ft | 13 kts | 180° |
| 2026-04-28 01:47 | 38.78104 | -104.68791 | 6192 ft | 12 kts | 180° |
| 2026-04-28 01:48 | 38.78020 | -104.68784 | 6192 ft | 12 kts | 154° |
| 2026-04-28 01:48 | 38.77997 | -104.68686 | 6191 ft | 13 kts | 88° |
| 2026-04-28 01:48 | 38.78013 | -104.68581 | 6188 ft | 9 kts | 26° |
| 2026-04-28 01:48 | 38.78081 | -104.68581 | 6191 ft | 13 kts | 0° |
| 2026-04-28 01:49 | 38.78395 | -104.68580 | 6193 ft | 79 kts | 0° |
| 2026-04-28 01:49 | 38.79157 | -104.68578 | 6191 ft | 138 kts | 359° |
| 2026-04-28 01:49 | 38.80279 | -104.68584 | 6293 ft | 177 kts | 360° |
| 2026-04-28 01:49 | 38.81548 | -104.68606 | 6855 ft | 191 kts | 1° |
| 2026-04-28 01:50 | 38.82956 | -104.68668 | 7300 ft | 212 kts | 1° |
| 2026-04-28 01:50 | 38.84472 | -104.68732 | 7840 ft | 224 kts | 4° |
| 2026-04-28 01:50 | 38.85997 | -104.68226 | 8117 ft | 240 kts | 38° |
| 2026-04-28 01:50 | 38.87159 | -104.66672 | 8714 ft | 244 kts | 70° |
| 2026-04-28 01:51 | 38.87460 | -104.64535 | 9276 ft | 252 kts | 97° |
| 2026-04-28 01:51 | 38.86945 | -104.62358 | 9779 ft | 260 kts | 122° |
| 2026-04-28 01:51 | 38.85855 | -104.60497 | 10573 ft | 264 kts | 133° |
| 2026-04-28 01:51 | 38.84609 | -104.58658 | 11141 ft | 284 kts | 134° |
| 2026-04-28 01:52 | 38.83235 | -104.56676 | 11291 ft | 312 kts | 135° |
| 2026-04-28 01:52 | 38.81474 | -104.54899 | 11501 ft | 333 kts | 152° |
| 2026-04-28 01:52 | 38.79345 | -104.53493 | 11765 ft | 353 kts | 156° |
| 2026-04-28 01:52 | 38.77088 | -104.52129 | 12319 ft | 364 kts | 157° |
| 2026-04-28 01:53 | 38.74783 | -104.50708 | 13122 ft | 367 kts | 157° |
| 2026-04-28 01:53 | 38.73253 | -104.49739 | 13638 ft | 371 kts | 157° |
| 2026-04-28 01:53 | 38.70927 | -104.48229 | 14286 ft | 379 kts | 156° |
| 2026-04-28 01:53 | 38.68571 | -104.46667 | 15061 ft | 383 kts | 156° |
| 2026-04-28 01:54 | 38.66200 | -104.45081 | 15848 ft | 383 kts | 157° |
| 2026-04-28 01:54 | 38.63833 | -104.43503 | 16673 ft | 385 kts | 159° |
| 2026-04-28 01:54 | 38.61338 | -104.42268 | 17336 ft | 385 kts | 169° |
| 2026-04-28 01:54 | 38.58713 | -104.41615 | 18049 ft | 384 kts | 178° |
| 2026-04-28 01:55 | 38.56045 | -104.41517 | 18698 ft | 384 kts | 186° |
| 2026-04-28 01:55 | 38.53363 | -104.41661 | 19296 ft | 388 kts | 187° |